createdAt,value
2023-11-17T00:00:54.152Z,3.33
2023-11-17T00:03:40.004Z,3.30
2023-11-17T00:06:26.778Z,2.90
2023-11-17T00:09:16.613Z,2.25
2023-11-17T00:12:02.462Z,2.38
2023-11-17T00:14:50.443Z,2.22
2023-11-17T00:17:37.497Z,2.00
2023-11-17T00:20:23.968Z,1.70
2023-11-17T00:23:09.175Z,1.63
2023-11-17T00:25:56.360Z,1.90
2023-11-17T00:28:41.730Z,1.88
2023-11-17T00:31:26.995Z,1.85
2023-11-17T00:34:42.919Z,1.40
2023-11-17T00:37:18.870Z,2.10
2023-11-17T00:40:07.587Z,2.20
2023-11-17T00:42:54.077Z,2.75
2023-11-17T00:45:40.123Z,2.65
2023-11-17T00:48:29.771Z,3.33
2023-11-17T00:51:19.713Z,3.00
2023-11-17T00:54:05.938Z,3.10
2023-11-17T00:56:53.789Z,2.88
2023-11-17T00:59:42.059Z,2.47
2023-11-17T01:02:27.645Z,2.40
2023-11-17T01:05:13.480Z,2.35
2023-11-17T01:07:59.817Z,2.22
2023-11-17T01:10:48.231Z,2.30
2023-11-17T01:13:38.348Z,2.40
2023-11-17T01:16:24.012Z,2.00
2023-11-17T01:19:10.128Z,1.88
2023-11-17T01:21:55.611Z,2.15
2023-11-17T01:24:41.118Z,1.85
2023-11-17T01:27:26.484Z,1.80
2023-11-17T01:30:13.031Z,2.72
2023-11-17T01:32:59.061Z,2.92
2023-11-17T01:35:45.260Z,3.30
2023-11-17T01:38:33.971Z,3.92
2023-11-17T01:41:25.854Z,4.55
2023-11-17T01:44:11.739Z,5.50
2023-11-17T01:46:57.384Z,5.32
2023-11-17T01:49:43.526Z,4.78
2023-11-17T01:52:29.264Z,5.65
2023-11-17T01:55:16.765Z,5.18
2023-11-17T01:58:03.548Z,5.10
2023-11-17T02:00:48.956Z,5.53
2023-11-17T02:03:34.513Z,5.70
2023-11-17T02:07:03.880Z,5.65
2023-11-17T02:10:10.673Z,5.53
2023-11-17T02:13:11.636Z,5.90
2023-11-17T02:16:03.502Z,5.80
2023-11-17T02:18:51.248Z,5.97
2023-11-17T02:21:40.077Z,5.82
2023-11-17T02:24:32.248Z,5.15
2023-11-17T02:27:38.513Z,6.28
2023-11-17T02:30:23.972Z,4.97
2023-11-17T02:33:10.292Z,4.22
2023-11-17T02:35:56.743Z,4.45
2023-11-17T02:38:57.995Z,3.70
2023-11-17T02:42:00.216Z,3.35
2023-11-17T02:44:48.551Z,2.67
2023-11-17T02:47:36.697Z,3.10
2023-11-17T02:50:33.113Z,2.83
2023-11-17T02:53:25.300Z,3.05
2023-11-17T02:56:19.392Z,3.55
2023-11-17T02:59:12.651Z,4.97
2023-11-17T03:02:00.988Z,5.10
2023-11-17T03:04:50.480Z,5.40
2023-11-17T03:07:36.762Z,5.32
2023-11-17T03:10:23.580Z,5.00
2023-11-17T03:13:15.053Z,5.90
2023-11-17T03:16:00.973Z,5.53
2023-11-17T03:18:46.511Z,5.50
2023-11-17T03:21:31.700Z,5.43
2023-11-17T03:24:21.975Z,5.50
2023-11-17T03:27:07.416Z,5.35
2023-11-17T03:29:55.608Z,6.25
2023-11-17T03:32:48.361Z,5.80
2023-11-17T03:35:33.838Z,6.85
2023-11-17T03:38:19.412Z,7.38
2023-11-17T03:41:05.103Z,6.28
2023-11-17T03:43:50.937Z,6.20
2023-11-17T03:46:38.665Z,5.68
2023-11-17T03:49:26.845Z,5.50
2023-11-17T03:52:15.216Z,6.05
2023-11-17T03:55:07.156Z,6.38
2023-11-17T03:57:56.542Z,6.38
2023-11-17T04:00:42.311Z,6.25
2023-11-17T04:03:27.610Z,6.00
2023-11-17T04:06:13.482Z,6.43
2023-11-17T04:08:59.245Z,6.25
2023-11-17T04:11:44.913Z,4.93
2023-11-17T04:14:41.245Z,4.90
2023-11-17T04:17:27.341Z,5.93
2023-11-17T04:20:16.271Z,5.40
2023-11-17T04:23:02.085Z,6.47
2023-11-17T04:25:47.930Z,7.35
2023-11-17T04:28:34.189Z,5.93
2023-11-17T04:31:20.413Z,5.82
2023-11-17T04:34:07.028Z,4.97
2023-11-17T04:36:53.137Z,5.50
2023-11-17T04:39:38.776Z,6.20
2023-11-17T04:42:26.298Z,5.93
2023-11-17T04:45:12.300Z,6.72
2023-11-17T04:47:57.794Z,6.70
2023-11-17T04:50:43.698Z,7.03
2023-11-17T04:53:29.296Z,6.18
2023-11-17T04:56:14.825Z,6.20
2023-11-17T04:59:00.267Z,6.63
2023-11-17T05:01:45.997Z,7.43
2023-11-17T05:04:31.742Z,7.35
2023-11-17T05:07:18.293Z,7.38
2023-11-17T05:10:06.687Z,7.20
2023-11-17T05:12:53.576Z,7.03
2023-11-17T05:15:43.330Z,6.63
2023-11-17T05:18:30.866Z,7.65
2023-11-17T05:21:16.822Z,7.65
2023-11-17T05:24:06.097Z,7.93
2023-11-17T05:26:51.676Z,8.73
2023-11-17T05:29:38.045Z,7.68
2023-11-17T05:32:26.777Z,7.28
2023-11-17T05:35:12.521Z,7.68
2023-11-17T05:37:58.098Z,7.15
2023-11-17T05:40:44.288Z,5.97
2023-11-17T05:43:29.888Z,5.72
2023-11-17T05:46:15.921Z,5.72
2023-11-17T05:49:02.279Z,6.50
2023-11-17T05:51:52.263Z,6.15
2023-11-17T05:54:47.709Z,5.65
2023-11-17T05:57:33.429Z,4.72
2023-11-17T06:00:22.129Z,5.47
2023-11-17T06:03:07.392Z,6.32
2023-11-17T06:05:56.583Z,7.05
2023-11-17T06:08:41.957Z,7.55
2023-11-17T06:11:27.305Z,7.68
2023-11-17T06:14:13.370Z,7.63
2023-11-17T06:16:59.265Z,7.82
2023-11-17T06:19:49.359Z,8.48
2023-11-17T06:22:34.745Z,9.00
2023-11-17T06:25:21.018Z,8.45
2023-11-17T06:28:06.893Z,8.35
2023-11-17T06:30:52.423Z,9.00
2023-11-17T06:33:37.705Z,9.85
2023-11-17T06:36:23.374Z,9.88
2023-11-17T06:39:15.559Z,10.02
2023-11-17T06:42:01.473Z,9.25
2023-11-17T06:44:46.907Z,10.40
2023-11-17T06:47:33.591Z,10.55
2023-11-17T06:50:19.229Z,11.45
2023-11-17T06:53:05.158Z,11.00
2023-11-17T06:55:50.986Z,11.20
2023-11-17T06:58:36.691Z,10.95
2023-11-17T07:01:23.896Z,12.02
2023-11-17T07:04:14.382Z,11.00
2023-11-17T07:07:00.497Z,11.35
2023-11-17T07:09:46.671Z,10.13
2023-11-17T07:12:32.338Z,10.65
2023-11-17T07:15:18.488Z,10.40
2023-11-17T07:18:04.869Z,11.70
2023-11-17T07:20:50.339Z,11.07
2023-11-17T07:23:36.068Z,11.00
2023-11-17T07:26:21.836Z,11.13
2023-11-17T07:29:07.871Z,10.57
2023-11-17T07:31:53.426Z,10.77
2023-11-17T07:34:38.771Z,9.93
2023-11-17T07:37:25.759Z,11.07
2023-11-17T07:40:14.964Z,11.30
2023-11-17T07:43:00.763Z,10.52
2023-11-17T07:45:46.650Z,11.27
2023-11-17T07:48:36.883Z,9.75
2023-11-17T07:51:27.965Z,11.00
2023-11-17T07:54:13.634Z,10.88
2023-11-17T07:56:58.909Z,12.55
2023-11-17T07:59:44.446Z,11.85
2023-11-17T08:02:29.992Z,12.05
2023-11-17T08:05:15.635Z,11.40
2023-11-17T08:08:12.222Z,11.63
2023-11-17T08:10:58.485Z,11.55
2023-11-17T08:13:43.968Z,12.75
2023-11-17T08:16:31.291Z,12.00
2023-11-17T08:19:24.515Z,12.05
2023-11-17T08:22:13.142Z,11.18
2023-11-17T08:24:58.833Z,12.43
2023-11-17T08:27:46.759Z,13.40
2023-11-17T08:30:39.113Z,12.60
2023-11-17T08:33:32.770Z,13.52
2023-11-17T08:36:19.059Z,13.27
2023-11-17T08:39:09.926Z,13.70
2023-11-17T08:42:01.542Z,12.88
2023-11-17T08:44:47.965Z,13.20
2023-11-17T08:47:33.262Z,14.38
2023-11-17T08:50:18.743Z,15.15
2023-11-17T08:53:04.856Z,13.13
2023-11-17T08:55:52.310Z,13.43
2023-11-17T08:58:38.144Z,13.43
2023-11-17T09:01:24.911Z,13.18
2023-11-17T09:04:10.426Z,15.55
2023-11-17T09:06:56.034Z,16.52
2023-11-17T09:09:42.487Z,14.20
2023-11-17T09:12:29.049Z,13.73
2023-11-17T09:15:20.229Z,14.57
2023-11-17T09:18:09.337Z,15.85
2023-11-17T09:20:54.643Z,17.63
2023-11-17T09:23:40.809Z,17.17
2023-11-17T09:26:26.159Z,15.18
2023-11-17T09:29:12.540Z,17.38
2023-11-17T09:31:58.191Z,17.98
2023-11-17T09:34:47.008Z,18.08
2023-11-17T09:37:34.575Z,16.08
2023-11-17T09:40:24.588Z,16.20
2023-11-17T09:43:20.205Z,18.75
2023-11-17T09:46:12.102Z,19.75
2023-11-17T09:49:03.736Z,20.95
2023-11-17T09:51:53.529Z,19.83
2023-11-17T09:54:40.164Z,19.60
2023-11-17T09:57:26.469Z,18.55
2023-11-17T10:00:18.812Z,18.20
2023-11-17T10:03:05.787Z,17.20
2023-11-17T10:05:54.496Z,18.08
2023-11-17T10:08:42.804Z,17.05
2023-11-17T10:11:29.704Z,16.55
2023-11-17T10:14:16.447Z,17.02
2023-11-17T10:17:06.359Z,15.43
2023-11-17T10:19:52.938Z,17.00
2023-11-17T10:22:44.132Z,15.93
2023-11-17T10:25:32.422Z,15.77
2023-11-17T10:28:19.000Z,13.45
2023-11-17T10:31:07.858Z,14.60
2023-11-17T10:33:57.041Z,14.48
2023-11-17T10:37:06.134Z,13.13
2023-11-17T10:40:00.727Z,13.07
2023-11-17T10:43:06.412Z,13.80
2023-11-17T10:46:00.975Z,12.63
2023-11-17T10:48:47.965Z,13.50
2023-11-17T10:51:45.527Z,13.00
2023-11-17T10:54:33.966Z,12.75
2023-11-17T10:57:22.674Z,10.07
2023-11-17T11:00:22.535Z,10.20
2023-11-17T11:03:11.340Z,9.60
2023-11-17T11:06:00.648Z,10.25
2023-11-17T11:08:54.566Z,9.35
2023-11-17T11:11:40.540Z,7.70
2023-11-17T11:14:29.109Z,8.57
2023-11-17T11:17:14.892Z,8.10
2023-11-17T11:20:21.344Z,7.05
2023-11-17T11:23:14.621Z,8.27
2023-11-17T11:26:05.367Z,8.52
2023-11-17T11:28:52.006Z,8.07
2023-11-17T11:31:39.961Z,8.50
2023-11-17T11:34:26.421Z,8.27
2023-11-17T11:37:12.158Z,8.13
2023-11-17T11:39:57.705Z,7.28
2023-11-17T11:42:46.759Z,6.93
2023-11-17T11:45:35.290Z,6.22
2023-11-17T11:48:25.277Z,5.40
2023-11-17T11:51:13.104Z,5.80
2023-11-17T11:54:06.666Z,5.10
2023-11-17T11:56:52.838Z,5.22
2023-11-17T11:59:42.057Z,4.68
2023-11-17T12:02:31.572Z,5.00
2023-11-17T12:05:22.916Z,4.18
2023-11-17T12:08:28.861Z,3.70
2023-11-17T12:13:59.797Z,3.70
2023-11-17T12:16:55.034Z,3.50
2023-11-17T12:19:41.546Z,3.95
2023-11-17T12:22:26.972Z,3.63
2023-11-17T12:25:14.675Z,4.32
2023-11-17T12:28:00.679Z,3.90
2023-11-17T12:30:47.008Z,4.13
2023-11-17T12:33:35.813Z,3.72
2023-11-17T12:36:23.116Z,4.00
2023-11-17T12:39:09.996Z,3.53
2023-11-17T12:41:55.472Z,3.72
2023-11-17T12:44:41.818Z,3.97
2023-11-17T12:47:32.289Z,3.55
2023-11-17T12:50:18.890Z,4.05
2023-11-17T12:53:08.968Z,3.90
2023-11-17T12:55:58.944Z,3.50
2023-11-17T12:58:44.852Z,2.80
2023-11-17T13:01:31.075Z,2.85
2023-11-17T13:04:16.984Z,2.85
2023-11-17T13:07:05.019Z,2.83
2023-11-17T13:09:50.393Z,3.05
2023-11-17T13:12:35.748Z,2.67
2023-11-17T13:15:21.173Z,2.55
2023-11-17T13:18:09.908Z,2.47
2023-11-17T13:20:56.324Z,2.50
2023-11-17T13:23:45.610Z,2.85
2023-11-17T13:26:31.082Z,3.28
2023-11-17T13:29:20.465Z,2.90
2023-11-17T13:32:07.261Z,2.78
2023-11-17T13:34:56.131Z,2.97
2023-11-17T13:37:42.308Z,3.30
2023-11-17T13:40:38.562Z,2.80
2023-11-17T13:43:25.411Z,3.70
2023-11-17T13:46:13.806Z,3.08
2023-11-17T13:49:20.996Z,2.67
2023-11-17T13:52:11.418Z,2.65
2023-11-17T13:55:00.920Z,2.50
2023-11-17T13:57:47.006Z,2.70
2023-11-17T14:00:35.924Z,2.85
2023-11-17T14:03:21.562Z,2.80
2023-11-17T14:06:07.545Z,2.78
2023-11-17T14:08:55.638Z,2.65
2023-11-17T14:11:45.276Z,2.70
2023-11-17T14:14:31.547Z,2.83
2023-11-17T14:17:17.161Z,2.53
2023-11-17T14:20:08.807Z,2.97
2023-11-17T14:23:14.450Z,2.45
2023-11-17T14:26:00.050Z,2.25
2023-11-17T14:28:45.671Z,2.45
2023-11-17T14:31:34.479Z,2.47
2023-11-17T14:34:25.714Z,3.22
2023-11-17T14:37:11.407Z,2.50
2023-11-17T14:39:57.282Z,3.25
2023-11-17T14:42:46.383Z,3.03
2023-11-17T14:45:32.034Z,3.15
2023-11-17T14:48:19.312Z,2.40
2023-11-17T14:51:08.598Z,2.20
2023-11-17T14:53:54.764Z,2.03
2023-11-17T14:56:43.330Z,2.30
2023-11-17T14:59:29.150Z,2.08
2023-11-17T15:02:15.123Z,1.90
2023-11-17T15:05:00.640Z,1.92
2023-11-17T15:07:47.062Z,2.08
2023-11-17T15:10:32.451Z,1.83
2023-11-17T15:13:18.232Z,2.28
2023-11-17T15:16:05.756Z,2.38
2023-11-17T15:18:54.767Z,2.47
2023-11-17T15:21:40.502Z,2.25
2023-11-17T15:24:28.094Z,2.75
2023-11-17T15:27:14.392Z,2.60
2023-11-17T15:30:00.818Z,2.88
2023-11-17T15:32:46.446Z,2.17
2023-11-17T15:35:33.421Z,2.33
2023-11-17T15:38:23.397Z,2.17
2023-11-17T15:41:08.723Z,2.10
2023-11-17T15:43:56.254Z,2.30
2023-11-17T15:46:44.743Z,2.50
2023-11-17T15:49:30.751Z,2.45
2023-11-17T15:52:16.458Z,2.70
2023-11-17T15:55:02.050Z,2.25
2023-11-17T15:57:47.843Z,2.50
2023-11-17T16:00:33.663Z,2.10
2023-11-17T16:03:19.292Z,2.55
2023-11-17T16:06:07.868Z,2.90
2023-11-17T16:08:53.734Z,2.67
2023-11-17T16:11:46.827Z,2.65
2023-11-17T16:14:32.638Z,2.70
2023-11-17T16:17:19.314Z,3.45
2023-11-17T16:20:07.447Z,3.40
2023-11-17T16:22:56.552Z,3.97
2023-11-17T16:25:42.459Z,4.05
2023-11-17T16:28:32.978Z,3.78
2023-11-17T16:31:18.231Z,3.45
2023-11-17T16:34:06.129Z,2.95
2023-11-17T16:36:53.764Z,3.92
2023-11-17T16:39:39.205Z,3.25
2023-11-17T16:42:24.436Z,3.13
2023-11-17T16:45:20.673Z,2.78
2023-11-17T16:48:07.938Z,3.22
2023-11-17T16:50:53.796Z,3.70
2023-11-17T16:53:39.807Z,3.75
2023-11-17T16:56:25.317Z,3.85
2023-11-17T16:59:10.911Z,3.38
2023-11-17T17:01:59.565Z,4.72
2023-11-17T17:04:46.913Z,3.53
2023-11-17T17:07:32.246Z,3.83
2023-11-17T17:10:23.053Z,4.18
2023-11-17T17:13:08.964Z,3.78
2023-11-17T17:15:55.455Z,3.58
2023-11-17T17:18:44.214Z,4.43
2023-11-17T17:21:30.014Z,3.95
2023-11-17T17:24:17.664Z,3.95
2023-11-17T17:27:09.758Z,3.60
2023-11-17T17:29:55.276Z,3.78
2023-11-17T17:32:45.613Z,3.92
2023-11-17T17:35:35.825Z,3.78
2023-11-17T17:38:21.550Z,5.20
2023-11-17T17:41:08.918Z,4.38
2023-11-17T17:43:57.289Z,4.95
2023-11-17T17:46:43.235Z,5.30
2023-11-17T17:52:24.272Z,6.38
2023-11-17T17:55:10.863Z,6.68
2023-11-17T17:57:57.620Z,6.22
2023-11-17T18:00:48.137Z,6.97
2023-11-17T18:03:33.980Z,6.35
2023-11-17T18:06:19.648Z,5.97
2023-11-17T18:09:07.100Z,5.78
2023-11-17T18:11:54.025Z,6.00
2023-11-17T18:14:41.533Z,6.05
2023-11-17T18:17:27.369Z,5.75
2023-11-17T18:20:20.756Z,5.85
2023-11-17T18:23:10.290Z,6.18
2023-11-17T18:26:14.223Z,7.10
2023-11-17T18:29:06.047Z,7.25
2023-11-17T18:31:51.425Z,6.60
2023-11-17T18:34:37.164Z,7.05
2023-11-17T18:37:22.685Z,7.03
2023-11-17T18:40:11.866Z,7.85
2023-11-17T18:42:58.632Z,7.38
2023-11-17T18:45:44.800Z,7.07
2023-11-17T18:48:30.138Z,7.57
2023-11-17T18:51:15.805Z,7.43
2023-11-17T18:54:01.867Z,8.18
2023-11-17T18:56:50.771Z,8.40
2023-11-17T18:59:36.428Z,9.45
2023-11-17T19:02:23.132Z,9.75
2023-11-17T19:05:10.876Z,10.25
2023-11-17T19:07:58.251Z,11.88
2023-11-17T19:10:45.944Z,11.60
2023-11-17T19:13:34.894Z,10.95
2023-11-17T19:16:23.010Z,12.75
2023-11-17T19:19:09.299Z,13.85
2023-11-17T19:21:54.956Z,14.75
2023-11-17T19:27:40.976Z,16.35
2023-11-17T19:30:26.608Z,14.95
2023-11-17T19:33:16.286Z,15.32
2023-11-17T19:36:09.429Z,15.57
2023-11-17T19:38:58.181Z,16.48
2023-11-17T19:41:43.860Z,14.60
2023-11-17T19:44:43.945Z,15.63
2023-11-17T19:47:38.795Z,16.45
2023-11-17T19:50:25.886Z,15.70
2023-11-17T19:53:11.244Z,14.95
2023-11-17T19:55:59.203Z,14.00
2023-11-17T19:58:48.311Z,14.13
2023-11-17T20:01:35.615Z,13.93
2023-11-17T20:04:47.656Z,14.13
2023-11-17T20:07:34.874Z,14.63
2023-11-17T20:10:21.345Z,13.43
2023-11-17T20:13:07.024Z,13.48
2023-11-17T20:15:52.260Z,13.10
2023-11-17T20:18:38.897Z,13.90
2023-11-17T20:21:31.811Z,14.23
2023-11-17T20:24:18.951Z,14.18
2023-11-17T20:27:07.017Z,15.27
2023-11-17T20:29:54.422Z,15.48
2023-11-17T20:32:40.460Z,14.93
2023-11-17T20:35:26.225Z,15.65
2023-11-17T20:38:12.154Z,15.75
2023-11-17T20:40:57.992Z,14.60
2023-11-17T20:43:43.614Z,14.60
2023-11-17T20:46:33.581Z,16.00
2023-11-17T20:49:20.010Z,16.33
2023-11-17T20:52:07.111Z,15.40
2023-11-17T20:54:57.304Z,15.43
2023-11-17T20:57:44.571Z,16.40
2023-11-17T21:00:34.534Z,17.08
2023-11-17T21:03:20.548Z,15.88
2023-11-17T21:06:08.134Z,17.20
2023-11-17T21:08:53.543Z,16.52
2023-11-17T21:11:44.934Z,18.15
2023-11-17T21:14:30.631Z,18.10
2023-11-17T21:17:18.696Z,18.38
2023-11-17T21:20:04.750Z,18.13
2023-11-17T21:22:53.223Z,17.00
2023-11-17T21:25:39.766Z,17.80
2023-11-17T21:28:29.500Z,18.13
2023-11-17T21:31:17.564Z,18.40
2023-11-17T21:34:08.991Z,17.15
2023-11-17T21:36:55.209Z,15.75
2023-11-17T21:39:43.193Z,17.98
2023-11-17T21:42:28.520Z,17.90
2023-11-17T21:45:18.750Z,20.75
2023-11-17T21:48:04.713Z,18.02
2023-11-17T21:50:50.410Z,20.73
2023-11-17T21:53:35.879Z,21.05
2023-11-17T21:56:22.102Z,18.30
2023-11-17T21:59:19.508Z,18.60
2023-11-17T22:02:06.611Z,20.25
2023-11-17T22:04:54.663Z,19.25
2023-11-17T22:07:43.739Z,19.88
2023-11-17T22:10:30.861Z,19.63
2023-11-17T22:13:16.441Z,20.20
2023-11-17T22:16:01.659Z,19.75
2023-11-17T22:18:48.059Z,20.45
2023-11-17T22:21:33.803Z,19.80
2023-11-17T22:24:19.338Z,19.05
2023-11-17T22:27:05.091Z,19.92
2023-11-17T22:29:50.706Z,19.33
2023-11-17T22:32:36.326Z,18.67
2023-11-17T22:35:23.770Z,19.45
2023-11-17T22:38:09.258Z,20.35
2023-11-17T22:40:54.593Z,19.63
2023-11-17T22:43:41.087Z,18.70
2023-11-17T22:46:27.721Z,17.80
2023-11-17T22:49:15.709Z,19.40
2023-11-17T22:52:01.350Z,20.23
2023-11-17T22:54:49.716Z,19.27
2023-11-17T22:57:35.743Z,18.50
2023-11-17T23:00:39.517Z,17.45
2023-11-17T23:03:25.219Z,18.17
2023-11-17T23:06:10.626Z,19.45
2023-11-17T23:08:56.249Z,18.77
2023-11-17T23:11:41.803Z,18.67
2023-11-17T23:14:28.928Z,20.05
2023-11-17T23:17:19.628Z,19.65
2023-11-17T23:20:08.878Z,20.77
2023-11-17T23:22:57.150Z,18.50
2023-11-17T23:25:42.582Z,18.10
2023-11-17T23:28:28.367Z,18.25
2023-11-17T23:31:16.205Z,18.52
2023-11-17T23:34:03.955Z,17.95
2023-11-17T23:36:49.287Z,17.95
2023-11-17T23:39:35.015Z,18.40
2023-11-17T23:42:20.332Z,18.35
2023-11-17T23:45:07.546Z,18.88
2023-11-17T23:47:53.024Z,18.00
2023-11-17T23:50:39.189Z,17.50
2023-11-17T23:53:30.849Z,17.77
2023-11-17T23:56:18.561Z,18.38
2023-11-17T23:59:06.748Z,18.27
